sensor_id;sensor_type;location;lat;lon;timestamp;temperature;humidity
21019;DHT22;10667;51.056;3.732;2022-09-09T00:02:27;17.70;99.90
21019;DHT22;10667;51.056;3.732;2022-09-09T00:05:09;17.70;99.90
21019;DHT22;10667;51.056;3.732;2022-09-09T00:07:50;17.70;99.90
21019;DHT22;10667;51.056;3.732;2022-09-09T00:21:20;17.60;99.90
21019;DHT22;10667;51.056;3.732;2022-09-09T00:24:01;17.70;99.90
21019;DHT22;10667;51.056;3.732;2022-09-09T00:26:39;17.70;99.90
21019;DHT22;10667;51.056;3.732;2022-09-09T00:31:34;17.50;99.90
21019;DHT22;10667;51.056;3.732;2022-09-09T00:34:13;17.50;99.90
21019;DHT22;10667;51.056;3.732;2022-09-09T00:36:43;17.50;99.90
21019;DHT22;10667;51.056;3.732;2022-09-09T00:39:37;17.50;99.90
21019;DHT22;10667;51.056;3.732;2022-09-09T00:42:41;17.70;99.90
21019;DHT22;10667;51.056;3.732;2022-09-09T00:48:10;17.70;99.90
21019;DHT22;10667;51.056;3.732;2022-09-09T00:53:51;17.60;99.90
21019;DHT22;10667;51.056;3.732;2022-09-09T00:56:25;17.50;99.90
21019;DHT22;10667;51.056;3.732;2022-09-09T00:59:27;17.50;99.90
21019;DHT22;10667;51.056;3.732;2022-09-09T01:01:53;17.50;99.90
21019;DHT22;10667;51.056;3.732;2022-09-09T01:04:28;17.60;99.90
21019;DHT22;10667;51.056;3.732;2022-09-09T01:07:06;17.60;99.90
21019;DHT22;10667;51.056;3.732;2022-09-09T01:09:42;17.60;99.90
21019;DHT22;10667;51.056;3.732;2022-09-09T01:12:23;17.60;99.90
21019;DHT22;10667;51.056;3.732;2022-09-09T01:14:52;17.50;99.90
21019;DHT22;10667;51.056;3.732;2022-09-09T01:17:28;17.50;99.90
21019;DHT22;10667;51.056;3.732;2022-09-09T01:20:03;17.40;99.90
21019;DHT22;10667;51.056;3.732;2022-09-09T01:22:34;17.50;99.90
21019;DHT22;10667;51.056;3.732;2022-09-09T01:27:53;17.30;99.90
21019;DHT22;10667;51.056;3.732;2022-09-09T01:30:21;17.30;99.90
21019;DHT22;10667;51.056;3.732;2022-09-09T01:32:50;17.40;99.90
21019;DHT22;10667;51.056;3.732;2022-09-09T01:35:32;17.50;99.90
21019;DHT22;10667;51.056;3.732;2022-09-09T01:37:58;17.50;99.90
21019;DHT22;10667;51.056;3.732;2022-09-09T01:40:25;17.50;99.90
21019;DHT22;10667;51.056;3.732;2022-09-09T01:42:52;17.40;99.90
21019;DHT22;10667;51.056;3.732;2022-09-09T01:45:18;17.40;99.90
21019;DHT22;10667;51.056;3.732;2022-09-09T01:47:45;17.40;99.90
21019;DHT22;10667;51.056;3.732;2022-09-09T01:50:15;17.40;99.90
21019;DHT22;10667;51.056;3.732;2022-09-09T01:52:42;17.30;99.90
21019;DHT22;10667;51.056;3.732;2022-09-09T01:55:09;17.40;99.90
21019;DHT22;10667;51.056;3.732;2022-09-09T02:00:22;17.30;99.90
21019;DHT22;10667;51.056;3.732;2022-09-09T02:03:20;17.40;99.90
21019;DHT22;10667;51.056;3.732;2022-09-09T02:06:14;17.50;99.90
21019;DHT22;10667;51.056;3.732;2022-09-09T02:08:46;17.50;99.90
21019;DHT22;10667;51.056;3.732;2022-09-09T02:11:16;17.40;99.90
21019;DHT22;10667;51.056;3.732;2022-09-09T02:13:46;17.40;99.90
21019;DHT22;10667;51.056;3.732;2022-09-09T02:19:01;17.40;99.90
21019;DHT22;10667;51.056;3.732;2022-09-09T02:21:30;17.40;99.90
21019;DHT22;10667;51.056;3.732;2022-09-09T02:23:59;17.30;99.90
21019;DHT22;10667;51.056;3.732;2022-09-09T02:26:26;17.40;99.90
21019;DHT22;10667;51.056;3.732;2022-09-09T02:28:55;17.50;99.90
21019;DHT22;10667;51.056;3.732;2022-09-09T02:31:25;17.60;99.90
21019;DHT22;10667;51.056;3.732;2022-09-09T02:33:56;17.50;99.90
21019;DHT22;10667;51.056;3.732;2022-09-09T02:36:24;17.60;99.90
21019;DHT22;10667;51.056;3.732;2022-09-09T02:38:51;17.80;99.90
21019;DHT22;10667;51.056;3.732;2022-09-09T02:41:35;17.70;99.90
21019;DHT22;10667;51.056;3.732;2022-09-09T02:44:01;17.60;99.90
21019;DHT22;10667;51.056;3.732;2022-09-09T02:52:11;17.60;99.90
21019;DHT22;10667;51.056;3.732;2022-09-09T02:54:35;17.60;99.90
21019;DHT22;10667;51.056;3.732;2022-09-09T02:57:16;17.70;99.90
21019;DHT22;10667;51.056;3.732;2022-09-09T02:59:46;17.70;99.90
21019;DHT22;10667;51.056;3.732;2022-09-09T03:02:12;17.60;99.90
21019;DHT22;10667;51.056;3.732;2022-09-09T03:04:39;17.60;99.90
21019;DHT22;10667;51.056;3.732;2022-09-09T03:07:05;17.70;99.90
21019;DHT22;10667;51.056;3.732;2022-09-09T03:09:33;17.70;99.90
21019;DHT22;10667;51.056;3.732;2022-09-09T03:11:59;17.80;99.90
21019;DHT22;10667;51.056;3.732;2022-09-09T03:14:25;17.80;99.90
21019;DHT22;10667;51.056;3.732;2022-09-09T03:16:52;17.70;99.90
21019;DHT22;10667;51.056;3.732;2022-09-09T03:19:18;17.60;99.90
21019;DHT22;10667;51.056;3.732;2022-09-09T03:21:45;17.60;99.90
21019;DHT22;10667;51.056;3.732;2022-09-09T03:24:15;17.60;99.90
21019;DHT22;10667;51.056;3.732;2022-09-09T03:26:45;17.70;99.90
21019;DHT22;10667;51.056;3.732;2022-09-09T03:29:12;17.70;99.90
21019;DHT22;10667;51.056;3.732;2022-09-09T03:31:39;17.60;99.90
21019;DHT22;10667;51.056;3.732;2022-09-09T03:34:05;17.70;99.90
21019;DHT22;10667;51.056;3.732;2022-09-09T03:36:32;17.80;99.90
21019;DHT22;10667;51.056;3.732;2022-09-09T03:38:58;17.80;99.90
21019;DHT22;10667;51.056;3.732;2022-09-09T03:41:25;17.80;99.90
21019;DHT22;10667;51.056;3.732;2022-09-09T03:43:52;17.80;99.90
21019;DHT22;10667;51.056;3.732;2022-09-09T03:46:19;17.80;99.90
21019;DHT22;10667;51.056;3.732;2022-09-09T03:48:45;17.80;99.90
21019;DHT22;10667;51.056;3.732;2022-09-09T03:51:11;17.90;99.90
21019;DHT22;10667;51.056;3.732;2022-09-09T03:53:40;17.90;99.90
21019;DHT22;10667;51.056;3.732;2022-09-09T03:56:06;17.80;99.90
21019;DHT22;10667;51.056;3.732;2022-09-09T03:58:33;17.80;99.90
21019;DHT22;10667;51.056;3.732;2022-09-09T04:01:02;17.80;99.90
21019;DHT22;10667;51.056;3.732;2022-09-09T04:03:31;17.80;99.90
21019;DHT22;10667;51.056;3.732;2022-09-09T04:06:01;17.90;99.90
21019;DHT22;10667;51.056;3.732;2022-09-09T04:08:28;17.80;99.90
21019;DHT22;10667;51.056;3.732;2022-09-09T04:10:57;17.80;99.90
21019;DHT22;10667;51.056;3.732;2022-09-09T04:13:24;17.80;99.90
21019;DHT22;10667;51.056;3.732;2022-09-09T04:15:54;17.60;99.90
21019;DHT22;10667;51.056;3.732;2022-09-09T04:18:27;17.70;99.90
21019;DHT22;10667;51.056;3.732;2022-09-09T04:20:55;17.70;99.90
21019;DHT22;10667;51.056;3.732;2022-09-09T04:23:29;17.70;99.90
21019;DHT22;10667;51.056;3.732;2022-09-09T04:25:58;17.70;99.90
21019;DHT22;10667;51.056;3.732;2022-09-09T04:28:26;17.60;99.90
21019;DHT22;10667;51.056;3.732;2022-09-09T04:30:52;17.60;99.90
21019;DHT22;10667;51.056;3.732;2022-09-09T04:33:19;17.60;99.90
21019;DHT22;10667;51.056;3.732;2022-09-09T04:35:53;17.70;99.90
21019;DHT22;10667;51.056;3.732;2022-09-09T04:38:19;17.80;99.90
21019;DHT22;10667;51.056;3.732;2022-09-09T04:40:48;17.80;99.90
21019;DHT22;10667;51.056;3.732;2022-09-09T04:43:14;17.70;99.90
21019;DHT22;10667;51.056;3.732;2022-09-09T04:45:41;17.60;99.90
21019;DHT22;10667;51.056;3.732;2022-09-09T04:48:10;17.40;99.90
21019;DHT22;10667;51.056;3.732;2022-09-09T04:50:36;17.60;99.90
21019;DHT22;10667;51.056;3.732;2022-09-09T04:53:02;17.70;99.90
21019;DHT22;10667;51.056;3.732;2022-09-09T04:55:29;17.50;99.90
21019;DHT22;10667;51.056;3.732;2022-09-09T04:58:06;17.60;99.90
21019;DHT22;10667;51.056;3.732;2022-09-09T05:00:33;17.60;99.90
21019;DHT22;10667;51.056;3.732;2022-09-09T05:03:04;17.60;99.90
21019;DHT22;10667;51.056;3.732;2022-09-09T05:05:34;17.70;99.90
21019;DHT22;10667;51.056;3.732;2022-09-09T05:08:03;17.60;99.90
21019;DHT22;10667;51.056;3.732;2022-09-09T05:10:30;17.60;99.90
21019;DHT22;10667;51.056;3.732;2022-09-09T05:12:56;17.60;99.90
21019;DHT22;10667;51.056;3.732;2022-09-09T05:15:22;17.70;99.90
21019;DHT22;10667;51.056;3.732;2022-09-09T05:17:47;17.70;99.90
21019;DHT22;10667;51.056;3.732;2022-09-09T05:20:13;17.70;99.90
21019;DHT22;10667;51.056;3.732;2022-09-09T05:22:39;17.60;99.90
21019;DHT22;10667;51.056;3.732;2022-09-09T05:25:06;17.70;99.90
21019;DHT22;10667;51.056;3.732;2022-09-09T05:27:34;17.70;99.90
21019;DHT22;10667;51.056;3.732;2022-09-09T05:30:00;17.80;99.90
21019;DHT22;10667;51.056;3.732;2022-09-09T05:32:25;17.70;99.90
21019;DHT22;10667;51.056;3.732;2022-09-09T05:34:51;17.60;99.90
21019;DHT22;10667;51.056;3.732;2022-09-09T05:37:20;17.60;99.90
21019;DHT22;10667;51.056;3.732;2022-09-09T05:39:46;17.60;99.90
21019;DHT22;10667;51.056;3.732;2022-09-09T05:42:12;17.50;99.90
21019;DHT22;10667;51.056;3.732;2022-09-09T05:44:37;17.50;99.90
21019;DHT22;10667;51.056;3.732;2022-09-09T05:47:03;17.50;99.90
21019;DHT22;10667;51.056;3.732;2022-09-09T05:49:29;17.50;99.90
21019;DHT22;10667;51.056;3.732;2022-09-09T05:51:55;17.60;99.90
21019;DHT22;10667;51.056;3.732;2022-09-09T05:54:21;17.60;99.90
21019;DHT22;10667;51.056;3.732;2022-09-09T05:56:46;17.60;99.90
21019;DHT22;10667;51.056;3.732;2022-09-09T05:59:13;17.70;99.90
21019;DHT22;10667;51.056;3.732;2022-09-09T06:01:39;17.70;99.90
21019;DHT22;10667;51.056;3.732;2022-09-09T06:04:07;17.70;99.90
21019;DHT22;10667;51.056;3.732;2022-09-09T06:06:36;17.80;99.90
21019;DHT22;10667;51.056;3.732;2022-09-09T06:09:03;17.70;99.90
21019;DHT22;10667;51.056;3.732;2022-09-09T06:11:32;17.50;99.90
21019;DHT22;10667;51.056;3.732;2022-09-09T06:14:00;17.30;99.90
21019;DHT22;10667;51.056;3.732;2022-09-09T06:16:27;17.30;99.90
21019;DHT22;10667;51.056;3.732;2022-09-09T06:18:54;17.20;99.90
21019;DHT22;10667;51.056;3.732;2022-09-09T06:21:26;16.90;99.90
21019;DHT22;10667;51.056;3.732;2022-09-09T06:23:52;16.80;99.90
21019;DHT22;10667;51.056;3.732;2022-09-09T06:26:23;16.90;99.90
21019;DHT22;10667;51.056;3.732;2022-09-09T06:28:51;16.90;99.90
21019;DHT22;10667;51.056;3.732;2022-09-09T06:31:20;16.80;99.90
21019;DHT22;10667;51.056;3.732;2022-09-09T06:33:51;16.80;99.90
21019;DHT22;10667;51.056;3.732;2022-09-09T06:36:27;16.80;99.90
21019;DHT22;10667;51.056;3.732;2022-09-09T06:38:53;16.90;99.90
21019;DHT22;10667;51.056;3.732;2022-09-09T06:41:20;16.80;99.90
21019;DHT22;10667;51.056;3.732;2022-09-09T06:43:46;16.90;99.90
21019;DHT22;10667;51.056;3.732;2022-09-09T06:46:14;16.80;99.90
21019;DHT22;10667;51.056;3.732;2022-09-09T06:48:41;16.80;99.90
21019;DHT22;10667;51.056;3.732;2022-09-09T06:51:14;17.00;99.90
21019;DHT22;10667;51.056;3.732;2022-09-09T06:53:42;17.10;99.90
21019;DHT22;10667;51.056;3.732;2022-09-09T06:58:37;17.30;99.90
21019;DHT22;10667;51.056;3.732;2022-09-09T07:01:08;17.40;99.90
21019;DHT22;10667;51.056;3.732;2022-09-09T07:03:35;17.40;99.90
21019;DHT22;10667;51.056;3.732;2022-09-09T07:06:01;17.40;99.90
21019;DHT22;10667;51.056;3.732;2022-09-09T07:08:27;17.50;99.90
21019;DHT22;10667;51.056;3.732;2022-09-09T07:10:53;17.50;99.90
21019;DHT22;10667;51.056;3.732;2022-09-09T07:13:26;17.60;99.90
21019;DHT22;10667;51.056;3.732;2022-09-09T07:15:52;17.70;99.90
21019;DHT22;10667;51.056;3.732;2022-09-09T07:18:19;17.70;99.90
21019;DHT22;10667;51.056;3.732;2022-09-09T07:20:53;17.80;99.90
21019;DHT22;10667;51.056;3.732;2022-09-09T07:23:20;17.80;99.90
21019;DHT22;10667;51.056;3.732;2022-09-09T07:25:46;17.70;99.90
21019;DHT22;10667;51.056;3.732;2022-09-09T07:28:13;17.70;99.90
21019;DHT22;10667;51.056;3.732;2022-09-09T07:30:38;17.80;99.90
21019;DHT22;10667;51.056;3.732;2022-09-09T07:33:05;17.70;99.90
21019;DHT22;10667;51.056;3.732;2022-09-09T07:35:31;17.90;99.90
21019;DHT22;10667;51.056;3.732;2022-09-09T07:37:57;18.00;99.90
21019;DHT22;10667;51.056;3.732;2022-09-09T07:40:26;18.00;99.90
21019;DHT22;10667;51.056;3.732;2022-09-09T07:42:52;18.10;99.90
21019;DHT22;10667;51.056;3.732;2022-09-09T07:45:19;18.20;99.90
21019;DHT22;10667;51.056;3.732;2022-09-09T07:47:44;18.20;99.90
21019;DHT22;10667;51.056;3.732;2022-09-09T07:50:10;18.30;99.90
21019;DHT22;10667;51.056;3.732;2022-09-09T07:52:36;18.20;99.90
21019;DHT22;10667;51.056;3.732;2022-09-09T07:55:03;18.20;99.90
21019;DHT22;10667;51.056;3.732;2022-09-09T07:57:32;18.20;99.90
21019;DHT22;10667;51.056;3.732;2022-09-09T07:59:58;18.20;99.90
21019;DHT22;10667;51.056;3.732;2022-09-09T08:02:24;18.10;99.90
21019;DHT22;10667;51.056;3.732;2022-09-09T08:04:50;18.10;99.90
21019;DHT22;10667;51.056;3.732;2022-09-09T08:07:17;17.90;99.90
21019;DHT22;10667;51.056;3.732;2022-09-09T08:09:43;17.80;99.90
21019;DHT22;10667;51.056;3.732;2022-09-09T08:12:09;17.70;99.90
21019;DHT22;10667;51.056;3.732;2022-09-09T08:14:36;17.70;99.90
21019;DHT22;10667;51.056;3.732;2022-09-09T08:17:02;17.70;99.90
21019;DHT22;10667;51.056;3.732;2022-09-09T08:19:28;17.60;99.90
21019;DHT22;10667;51.056;3.732;2022-09-09T08:21:59;17.60;99.90
21019;DHT22;10667;51.056;3.732;2022-09-09T08:24:27;17.50;99.90
21019;DHT22;10667;51.056;3.732;2022-09-09T08:26:53;17.60;99.90
21019;DHT22;10667;51.056;3.732;2022-09-09T08:29:19;17.70;99.90
21019;DHT22;10667;51.056;3.732;2022-09-09T08:31:53;17.60;99.90
21019;DHT22;10667;51.056;3.732;2022-09-09T08:34:23;17.70;99.90
21019;DHT22;10667;51.056;3.732;2022-09-09T08:36:50;17.80;99.90
21019;DHT22;10667;51.056;3.732;2022-09-09T08:39:19;17.80;99.90
21019;DHT22;10667;51.056;3.732;2022-09-09T08:50:13;17.60;99.90
21019;DHT22;10667;51.056;3.732;2022-09-09T08:53:16;17.70;99.90
21019;DHT22;10667;51.056;3.732;2022-09-09T08:55:49;17.70;99.90
21019;DHT22;10667;51.056;3.732;2022-09-09T08:58:19;17.90;99.90
21019;DHT22;10667;51.056;3.732;2022-09-09T09:08:37;17.80;99.90
21019;DHT22;10667;51.056;3.732;2022-09-09T09:11:06;17.70;99.90
21019;DHT22;10667;51.056;3.732;2022-09-09T09:13:50;17.80;99.90
21019;DHT22;10667;51.056;3.732;2022-09-09T09:18:52;17.60;99.90
21019;DHT22;10667;51.056;3.732;2022-09-09T09:23:58;17.90;99.90
21019;DHT22;10667;51.056;3.732;2022-09-09T09:26:35;17.80;99.90
21019;DHT22;10667;51.056;3.732;2022-09-09T09:29:12;17.90;99.90
21019;DHT22;10667;51.056;3.732;2022-09-09T09:31:37;18.30;99.90
21019;DHT22;10667;51.056;3.732;2022-09-09T09:34:03;18.60;99.90
21019;DHT22;10667;51.056;3.732;2022-09-09T09:36:43;18.90;99.90
21019;DHT22;10667;51.056;3.732;2022-09-09T09:39:28;19.10;99.90
21019;DHT22;10667;51.056;3.732;2022-09-09T09:41:54;19.10;99.90
21019;DHT22;10667;51.056;3.732;2022-09-09T09:44:27;18.90;99.90
21019;DHT22;10667;51.056;3.732;2022-09-09T09:47:04;19.00;99.90
21019;DHT22;10667;51.056;3.732;2022-09-09T09:49:30;19.20;99.90
21019;DHT22;10667;51.056;3.732;2022-09-09T09:52:03;19.10;99.90
21019;DHT22;10667;51.056;3.732;2022-09-09T09:54:37;19.00;99.90
21019;DHT22;10667;51.056;3.732;2022-09-09T09:57:16;19.00;99.90
21019;DHT22;10667;51.056;3.732;2022-09-09T09:59:42;18.90;99.90
21019;DHT22;10667;51.056;3.732;2022-09-09T10:04:44;18.70;99.90
21019;DHT22;10667;51.056;3.732;2022-09-09T10:07:22;18.90;99.90
21019;DHT22;10667;51.056;3.732;2022-09-09T10:09:52;18.90;99.90
21019;DHT22;10667;51.056;3.732;2022-09-09T10:19:18;19.40;99.90
21019;DHT22;10667;51.056;3.732;2022-09-09T10:27:44;19.70;99.90
21019;DHT22;10667;51.056;3.732;2022-09-09T10:32:33;19.30;99.90
21019;DHT22;10667;51.056;3.732;2022-09-09T10:40:58;19.70;99.90
21019;DHT22;10667;51.056;3.732;2022-09-09T10:55:17;20.20;99.90
21019;DHT22;10667;51.056;3.732;2022-09-09T10:57:50;20.40;99.90
21019;DHT22;10667;51.056;3.732;2022-09-09T11:00:22;20.50;99.90
21019;DHT22;10667;51.056;3.732;2022-09-09T11:02:54;20.40;99.90
21019;DHT22;10667;51.056;3.732;2022-09-09T11:05:29;20.10;99.90
21019;DHT22;10667;51.056;3.732;2022-09-09T11:13:24;20.20;99.90
21019;DHT22;10667;51.056;3.732;2022-09-09T11:15:59;20.10;99.90
21019;DHT22;10667;51.056;3.732;2022-09-09T11:18:28;20.50;99.90
21019;DHT22;10667;51.056;3.732;2022-09-09T11:20:59;21.00;99.90
21019;DHT22;10667;51.056;3.732;2022-09-09T11:23:43;21.30;99.90
21019;DHT22;10667;51.056;3.732;2022-09-09T11:26:19;21.70;99.90
21019;DHT22;10667;51.056;3.732;2022-09-09T11:28:59;21.80;99.90
21019;DHT22;10667;51.056;3.732;2022-09-09T11:40:30;22.00;99.90
21019;DHT22;10667;51.056;3.732;2022-09-09T11:45:34;22.80;99.90
21019;DHT22;10667;51.056;3.732;2022-09-09T11:48:02;22.50;99.90
21019;DHT22;10667;51.056;3.732;2022-09-09T11:50:36;22.10;99.90
21019;DHT22;10667;51.056;3.732;2022-09-09T11:53:19;21.90;99.90
21019;DHT22;10667;51.056;3.732;2022-09-09T11:56:06;21.30;99.90
21019;DHT22;10667;51.056;3.732;2022-09-09T11:58:44;21.10;99.90
21019;DHT22;10667;51.056;3.732;2022-09-09T12:01:33;21.20;99.90
21019;DHT22;10667;51.056;3.732;2022-09-09T12:07:31;21.40;99.90
21019;DHT22;10667;51.056;3.732;2022-09-09T12:12:27;21.90;99.90
21019;DHT22;10667;51.056;3.732;2022-09-09T12:14:57;22.50;99.90
21019;DHT22;10667;51.056;3.732;2022-09-09T12:17:26;22.70;99.90
21019;DHT22;10667;51.056;3.732;2022-09-09T12:20:09;22.50;99.90
21019;DHT22;10667;51.056;3.732;2022-09-09T12:33:39;22.30;99.90
21019;DHT22;10667;51.056;3.732;2022-09-09T12:36:16;22.20;99.90
21019;DHT22;10667;51.056;3.732;2022-09-09T12:38:44;22.40;99.90
21019;DHT22;10667;51.056;3.732;2022-09-09T12:41:24;22.40;99.90
21019;DHT22;10667;51.056;3.732;2022-09-09T12:43:51;22.30;99.90
21019;DHT22;10667;51.056;3.732;2022-09-09T12:46:30;22.00;99.90
21019;DHT22;10667;51.056;3.732;2022-09-09T12:48:57;22.00;99.90
21019;DHT22;10667;51.056;3.732;2022-09-09T12:51:33;22.10;99.90
21019;DHT22;10667;51.056;3.732;2022-09-09T12:54:00;21.90;99.90
21019;DHT22;10667;51.056;3.732;2022-09-09T12:56:28;21.50;99.90
21019;DHT22;10667;51.056;3.732;2022-09-09T12:58:56;21.30;99.90
21019;DHT22;10667;51.056;3.732;2022-09-09T13:01:30;21.30;99.90
21019;DHT22;10667;51.056;3.732;2022-09-09T13:03:56;21.20;99.90
21019;DHT22;10667;51.056;3.732;2022-09-09T13:06:30;20.80;99.90
21019;DHT22;10667;51.056;3.732;2022-09-09T13:08:58;20.80;99.90
21019;DHT22;10667;51.056;3.732;2022-09-09T13:11:42;20.60;99.90
21019;DHT22;10667;51.056;3.732;2022-09-09T13:14:20;20.50;99.90
21019;DHT22;10667;51.056;3.732;2022-09-09T13:16:59;20.40;99.90
21019;DHT22;10667;51.056;3.732;2022-09-09T13:19:26;20.70;99.90
21019;DHT22;10667;51.056;3.732;2022-09-09T13:21:54;20.80;99.90
21019;DHT22;10667;51.056;3.732;2022-09-09T13:24:40;21.40;99.90
21019;DHT22;10667;51.056;3.732;2022-09-09T13:27:36;22.40;99.90
21019;DHT22;10667;51.056;3.732;2022-09-09T13:30:25;22.90;99.90
21019;DHT22;10667;51.056;3.732;2022-09-09T13:35:35;24.50;99.90
21019;DHT22;10667;51.056;3.732;2022-09-09T13:38:12;25.20;99.90
21019;DHT22;10667;51.056;3.732;2022-09-09T13:40:39;25.70;99.90
21019;DHT22;10667;51.056;3.732;2022-09-09T13:43:05;26.60;99.90
21019;DHT22;10667;51.056;3.732;2022-09-09T13:45:31;27.10;99.90
21019;DHT22;10667;51.056;3.732;2022-09-09T13:47:57;26.70;99.90
21019;DHT22;10667;51.056;3.732;2022-09-09T13:50:27;26.20;99.90
21019;DHT22;10667;51.056;3.732;2022-09-09T13:52:55;25.10;99.90
21019;DHT22;10667;51.056;3.732;2022-09-09T13:55:24;24.70;99.90
21019;DHT22;10667;51.056;3.732;2022-09-09T13:57:55;24.40;99.90
21019;DHT22;10667;51.056;3.732;2022-09-09T14:00:21;23.70;99.90
21019;DHT22;10667;51.056;3.732;2022-09-09T14:02:48;23.60;99.90
21019;DHT22;10667;51.056;3.732;2022-09-09T14:05:14;23.40;99.90
21019;DHT22;10667;51.056;3.732;2022-09-09T14:07:42;23.00;99.90
21019;DHT22;10667;51.056;3.732;2022-09-09T14:10:09;22.70;99.90
21019;DHT22;10667;51.056;3.732;2022-09-09T14:12:35;22.90;99.90
21019;DHT22;10667;51.056;3.732;2022-09-09T14:15:05;22.80;99.90
21019;DHT22;10667;51.056;3.732;2022-09-09T14:17:32;22.90;99.90
21019;DHT22;10667;51.056;3.732;2022-09-09T14:19:58;23.10;99.90
21019;DHT22;10667;51.056;3.732;2022-09-09T14:22:24;22.80;99.90
21019;DHT22;10667;51.056;3.732;2022-09-09T14:24:50;22.70;99.90
21019;DHT22;10667;51.056;3.732;2022-09-09T14:27:17;22.60;99.90
21019;DHT22;10667;51.056;3.732;2022-09-09T14:29:44;22.70;99.90
21019;DHT22;10667;51.056;3.732;2022-09-09T14:32:10;22.80;99.90
21019;DHT22;10667;51.056;3.732;2022-09-09T14:34:36;22.90;99.90
21019;DHT22;10667;51.056;3.732;2022-09-09T14:37:02;23.60;99.90
21019;DHT22;10667;51.056;3.732;2022-09-09T14:39:28;24.40;99.90
21019;DHT22;10667;51.056;3.732;2022-09-09T14:41:54;25.40;99.90
21019;DHT22;10667;51.056;3.732;2022-09-09T14:44:20;26.20;99.90
21019;DHT22;10667;51.056;3.732;2022-09-09T14:46:46;26.70;99.90
21019;DHT22;10667;51.056;3.732;2022-09-09T14:49:12;27.40;99.90
21019;DHT22;10667;51.056;3.732;2022-09-09T14:51:38;27.20;99.90
21019;DHT22;10667;51.056;3.732;2022-09-09T14:54:04;27.80;99.90
21019;DHT22;10667;51.056;3.732;2022-09-09T14:56:32;27.60;99.90
21019;DHT22;10667;51.056;3.732;2022-09-09T14:59:00;27.40;99.90
21019;DHT22;10667;51.056;3.732;2022-09-09T15:01:26;27.80;99.90
21019;DHT22;10667;51.056;3.732;2022-09-09T15:03:58;27.70;99.90
21019;DHT22;10667;51.056;3.732;2022-09-09T15:06:25;27.00;99.90
21019;DHT22;10667;51.056;3.732;2022-09-09T15:08:53;26.90;99.90
21019;DHT22;10667;51.056;3.732;2022-09-09T15:11:19;26.60;99.90
21019;DHT22;10667;51.056;3.732;2022-09-09T15:13:45;26.20;99.90
21019;DHT22;10667;51.056;3.732;2022-09-09T15:16:13;26.20;99.90
21019;DHT22;10667;51.056;3.732;2022-09-09T15:18:40;26.00;99.90
21019;DHT22;10667;51.056;3.732;2022-09-09T15:21:12;25.80;99.90
21019;DHT22;10667;51.056;3.732;2022-09-09T15:23:39;25.70;99.90
21019;DHT22;10667;51.056;3.732;2022-09-09T15:26:05;25.40;99.90
21019;DHT22;10667;51.056;3.732;2022-09-09T15:28:33;25.20;99.90
21019;DHT22;10667;51.056;3.732;2022-09-09T15:31:09;24.80;99.90
21019;DHT22;10667;51.056;3.732;2022-09-09T15:33:36;24.50;99.90
21019;DHT22;10667;51.056;3.732;2022-09-09T15:36:22;24.30;99.90
21019;DHT22;10667;51.056;3.732;2022-09-09T15:38:48;23.80;99.90
21019;DHT22;10667;51.056;3.732;2022-09-09T15:41:14;23.40;99.90
21019;DHT22;10667;51.056;3.732;2022-09-09T15:43:48;23.10;99.90
21019;DHT22;10667;51.056;3.732;2022-09-09T15:46:33;23.00;99.90
21019;DHT22;10667;51.056;3.732;2022-09-09T15:49:04;22.90;99.90
21019;DHT22;10667;51.056;3.732;2022-09-09T15:51:30;22.60;99.90
21019;DHT22;10667;51.056;3.732;2022-09-09T15:53:59;22.70;99.90
21019;DHT22;10667;51.056;3.732;2022-09-09T15:56:27;22.80;99.90
21019;DHT22;10667;51.056;3.732;2022-09-09T15:58:55;22.70;99.90
21019;DHT22;10667;51.056;3.732;2022-09-09T16:01:20;22.60;99.90
21019;DHT22;10667;51.056;3.732;2022-09-09T16:03:47;22.50;99.90
21019;DHT22;10667;51.056;3.732;2022-09-09T16:06:14;22.60;99.90
21019;DHT22;10667;51.056;3.732;2022-09-09T16:08:42;22.50;99.90
21019;DHT22;10667;51.056;3.732;2022-09-09T16:11:22;22.80;99.90
21019;DHT22;10667;51.056;3.732;2022-09-09T16:13:49;22.90;99.90
21019;DHT22;10667;51.056;3.732;2022-09-09T16:16:18;22.70;99.90
21019;DHT22;10667;51.056;3.732;2022-09-09T16:18:49;22.90;99.90
21019;DHT22;10667;51.056;3.732;2022-09-09T16:21:22;23.30;99.90
21019;DHT22;10667;51.056;3.732;2022-09-09T16:23:50;23.80;99.90
21019;DHT22;10667;51.056;3.732;2022-09-09T16:26:17;24.00;99.90
21019;DHT22;10667;51.056;3.732;2022-09-09T16:28:43;24.10;99.90
21019;DHT22;10667;51.056;3.732;2022-09-09T16:31:23;24.10;99.90
21019;DHT22;10667;51.056;3.732;2022-09-09T16:33:49;23.80;99.90
21019;DHT22;10667;51.056;3.732;2022-09-09T16:36:18;23.70;99.90
21019;DHT22;10667;51.056;3.732;2022-09-09T16:38:44;23.20;99.90
21019;DHT22;10667;51.056;3.732;2022-09-09T16:41:11;22.80;99.90
21019;DHT22;10667;51.056;3.732;2022-09-09T16:43:39;22.90;99.90
21019;DHT22;10667;51.056;3.732;2022-09-09T16:46:24;22.80;99.90
21019;DHT22;10667;51.056;3.732;2022-09-09T16:48:50;22.60;99.90
21019;DHT22;10667;51.056;3.732;2022-09-09T16:51:18;22.40;99.90
21019;DHT22;10667;51.056;3.732;2022-09-09T16:53:44;22.10;99.90
21019;DHT22;10667;51.056;3.732;2022-09-09T16:56:16;22.10;99.90
21019;DHT22;10667;51.056;3.732;2022-09-09T16:58:43;22.20;99.90
21019;DHT22;10667;51.056;3.732;2022-09-09T17:01:10;22.30;99.90
21019;DHT22;10667;51.056;3.732;2022-09-09T17:03:39;22.10;99.90
21019;DHT22;10667;51.056;3.732;2022-09-09T17:06:10;22.00;99.90
21019;DHT22;10667;51.056;3.732;2022-09-09T17:08:37;21.80;99.90
21019;DHT22;10667;51.056;3.732;2022-09-09T17:11:11;21.10;99.90
21019;DHT22;10667;51.056;3.732;2022-09-09T17:13:39;20.30;99.90
21019;DHT22;10667;51.056;3.732;2022-09-09T17:16:05;19.70;99.90
21019;DHT22;10667;51.056;3.732;2022-09-09T17:18:31;19.50;99.90
21019;DHT22;10667;51.056;3.732;2022-09-09T17:21:02;19.60;99.90
21019;DHT22;10667;51.056;3.732;2022-09-09T17:23:28;19.40;99.90
21019;DHT22;10667;51.056;3.732;2022-09-09T17:25:59;19.50;99.90
21019;DHT22;10667;51.056;3.732;2022-09-09T17:28:25;19.30;99.90
21019;DHT22;10667;51.056;3.732;2022-09-09T17:30:57;19.20;99.90
21019;DHT22;10667;51.056;3.732;2022-09-09T17:33:23;19.20;99.90
21019;DHT22;10667;51.056;3.732;2022-09-09T17:35:49;18.80;99.90
21019;DHT22;10667;51.056;3.732;2022-09-09T17:38:14;18.80;99.90
21019;DHT22;10667;51.056;3.732;2022-09-09T17:40:41;18.70;99.90
21019;DHT22;10667;51.056;3.732;2022-09-09T17:43:07;18.60;99.90
21019;DHT22;10667;51.056;3.732;2022-09-09T17:45:33;18.50;99.90
21019;DHT22;10667;51.056;3.732;2022-09-09T17:47:59;18.40;99.90
21019;DHT22;10667;51.056;3.732;2022-09-09T17:50:25;18.40;99.90
21019;DHT22;10667;51.056;3.732;2022-09-09T17:52:50;18.40;99.90
21019;DHT22;10667;51.056;3.732;2022-09-09T17:55:16;18.60;99.90
21019;DHT22;10667;51.056;3.732;2022-09-09T17:57:42;18.60;99.90